Time;durP1;ratioP1;P1;durP2;ratioP2;P2;SDS_P1;SDS_P2;PMS_P1;PMS_P2;Temp;Humidity;BMP_temperature;BMP_pressure;BME280_temperature;BME280_humidity;BME280_pressure;Samples;Min_cycle;Max_cycle;Signal;HPM_P1;HPM_P2
2022/10/18 00:03:43;;;;;;;10.40;5.90;;;23.20;72.30;;;;;;215130;1284;24315;-57
2022/10/18 00:08:46;;;;;;;9.40;5.60;;;23.10;72.40;;;;;;214818;1284;25649;-56
2022/10/18 00:13:50;;;;;;;7.50;5.80;;;23.10;72.30;;;;;;214813;1278;24726;-56
2022/10/18 00:18:54;;;;;;;9.00;5.40;;;23.10;72.70;;;;;;215119;1282;24223;-56
2022/10/18 00:23:57;;;;;;;7.60;5.80;;;23.10;72.40;;;;;;215095;1300;22454;-54
2022/10/18 00:29:04;;;;;;;9.00;5.80;;;23.00;72.50;;;;;;215060;1290;22472;-57
2022/10/18 00:34:13;;;;;;;8.80;5.90;;;23.10;73.00;;;;;;215034;1282;22468;-56
2022/10/18 00:39:19;;;;;;;6.30;5.10;;;23.00;72.80;;;;;;214989;1278;22701;-54
2022/10/18 00:44:25;;;;;;;7.50;6.10;;;23.00;72.40;;;;;;215055;1294;22537;-56
2022/10/18 00:49:36;;;;;;;8.20;5.30;;;23.00;72.50;;;;;;215045;1281;22482;-57
2022/10/18 00:54:42;;;;;;;9.70;5.70;;;23.00;72.60;;;;;;215067;1281;22981;-56
2022/10/18 00:59:47;;;;;;;8.30;5.50;;;23.00;72.80;;;;;;215004;1300;22461;-56
2022/10/18 01:04:52;;;;;;;7.80;5.40;;;23.00;72.40;;;;;;214930;1292;22466;-56
2022/10/18 01:10:15;;;;;;;8.30;5.40;;;22.90;72.40;;;;;;214958;1292;22501;-54
2022/10/18 01:15:53;;;;;;;7.30;5.60;;;22.90;72.80;;;;;;215094;1291;22471;-57
2022/10/18 01:21:28;;;;;;;7.40;5.90;;;22.90;72.50;;;;;;214930;1275;22695;-54
2022/10/18 01:26:49;;;;;;;8.20;5.20;;;22.90;72.60;;;;;;214857;1287;22846;-55
2022/10/18 01:32:08;;;;;;;8.40;5.80;;;22.90;72.50;;;;;;214934;1284;25432;-57
2022/10/18 01:37:16;;;;;;;7.20;5.10;;;22.90;72.80;;;;;;215195;1291;22457;-55
2022/10/18 01:42:20;;;;;;;7.80;5.70;;;22.80;72.60;;;;;;215108;1286;22463;-55
2022/10/18 01:47:25;;;;;;;6.60;5.30;;;22.90;72.70;;;;;;215107;1289;22468;-55
2022/10/18 01:52:29;;;;;;;10.30;5.80;;;22.80;72.70;;;;;;214849;1284;22475;-56
2022/10/18 01:57:45;;;;;;;7.50;5.60;;;22.80;72.90;;;;;;215116;1291;22547;-54
2022/10/18 02:03:09;;;;;;;8.40;5.20;;;22.80;73.10;;;;;;215106;1299;25363;-59
2022/10/18 02:08:45;;;;;;;6.30;5.20;;;22.80;72.70;;;;;;214938;1287;24300;-55
2022/10/18 02:13:59;;;;;;;8.90;5.40;;;22.70;72.70;;;;;;215081;1294;22465;-56
2022/10/18 02:19:45;;;;;;;6.30;5.10;;;22.80;72.80;;;;;;214825;1299;25360;-55
2022/10/18 02:24:53;;;;;;;6.60;5.20;;;22.80;72.70;;;;;;214790;1292;28005;-55
2022/10/18 02:29:57;;;;;;;9.10;5.00;;;22.80;73.00;;;;;;214929;1296;24231;-56
2022/10/18 02:35:08;;;;;;;7.90;5.80;;;22.70;72.80;;;;;;215089;1288;22461;-57
2022/10/18 02:40:12;;;;;;;;;;;22.70;73.00;;;;;;215051;1277;24462;-56
2022/10/18 02:45:16;;;;;;;6.70;5.40;;;22.70;73.00;;;;;;215145;1288;22845;-55
2022/10/18 02:50:20;;;;;;;6.30;4.70;;;22.70;73.00;;;;;;215099;1285;22482;-55
2022/10/18 02:55:23;;;;;;;8.80;5.50;;;22.70;72.90;;;;;;214962;1281;24284;-58
2022/10/18 03:00:27;;;;;;;7.70;5.30;;;22.60;72.80;;;;;;214964;1281;22562;-56
2022/10/18 03:05:30;;;;;;;6.90;5.00;;;22.70;73.00;;;;;;215093;1291;22531;-57
2022/10/18 03:10:34;;;;;;;10.20;5.10;;;22.60;72.90;;;;;;215088;1300;22508;-57
2022/10/18 03:15:38;;;;;;;7.20;5.40;;;22.60;72.80;;;;;;215031;1284;22522;-56
2022/10/18 03:20:41;;;;;;;5.60;4.80;;;22.60;73.10;;;;;;215053;1291;22471;-57
2022/10/18 03:25:44;;;;;;;9.40;4.80;;;22.60;73.20;;;;;;215126;1299;25206;-57
2022/10/18 03:30:48;;;;;;;7.60;5.30;;;22.60;72.80;;;;;;214880;1291;22978;-59
2022/10/18 03:35:51;;;;;;;7.50;4.90;;;22.60;72.70;;;;;;214967;1300;25348;-57
2022/10/18 03:40:55;;;;;;;7.40;5.10;;;22.60;72.70;;;;;;215180;1282;22590;-58
2022/10/18 03:46:00;;;;;;;9.40;5.70;;;22.50;73.20;;;;;;215143;1294;22501;-55
2022/10/18 03:51:05;;;;;;;8.60;5.00;;;22.50;72.80;;;;;;215022;1294;23886;-56
2022/10/18 03:56:08;;;;;;;11.30;5.40;;;22.50;72.80;;;;;;215125;1292;22599;-57
2022/10/18 04:01:12;;;;;;;9.90;5.70;;;22.50;72.40;;;;;;215047;1297;22471;-58
2022/10/18 04:06:15;;;;;;;8.50;5.30;;;22.50;72.70;;;;;;214943;1296;25347;-55
2022/10/18 04:11:19;;;;;;;6.80;5.20;;;22.50;72.60;;;;;;215017;1295;22522;-56
2022/10/18 04:16:22;;;;;;;11.30;5.30;;;22.50;72.60;;;;;;215075;1294;25348;-55
2022/10/18 04:21:26;;;;;;;5.70;4.60;;;22.50;72.70;;;;;;214899;1284;22852;-54
2022/10/18 04:26:29;;;;;;;11.40;5.50;;;22.50;72.70;;;;;;215033;1296;22664;-57
2022/10/18 04:31:33;;;;;;;10.10;5.40;;;22.40;72.60;;;;;;214692;1286;22467;-56
2022/10/18 04:36:36;;;;;;;6.20;4.70;;;22.40;72.80;;;;;;214965;1281;22666;-56
2022/10/18 04:41:40;;;;;;;16.70;6.30;;;22.40;72.70;;;;;;214776;1289;22534;-60
2022/10/18 04:46:43;;;;;;;6.70;5.30;;;22.40;73.10;;;;;;214926;1286;24116;-57
2022/10/18 04:51:47;;;;;;;5.90;4.70;;;22.40;72.80;;;;;;215031;1294;23491;-55
2022/10/18 04:56:51;;;;;;;12.60;5.20;;;22.30;72.70;;;;;;214869;1291;24338;-61
2022/10/18 05:01:58;;;;;;;10.80;5.60;;;22.40;72.80;;;;;;215068;1286;22971;-57
2022/10/18 05:07:01;;;;;;;8.00;4.80;;;22.40;72.90;;;;;;215209;1281;22683;-57
2022/10/18 05:12:10;;;;;;;8.40;4.80;;;22.40;72.90;;;;;;215153;1291;24288;-58
2022/10/18 05:17:14;;;;;;;8.30;5.20;;;22.40;72.70;;;;;;215088;1282;25710;-58
2022/10/18 05:22:18;;;;;;;6.90;4.80;;;22.40;72.70;;;;;;215187;1282;24256;-56
2022/10/18 05:27:21;;;;;;;6.60;4.70;;;22.40;72.70;;;;;;215054;1284;22467;-57
2022/10/18 05:32:25;;;;;;;6.60;4.90;;;22.40;73.00;;;;;;215026;1300;22486;-58
2022/10/18 05:37:28;;;;;;;6.30;4.60;;;22.40;73.00;;;;;;215009;1300;25352;-57
2022/10/18 05:42:32;;;;;;;7.40;4.50;;;22.40;72.50;;;;;;214883;1289;25289;-55
2022/10/18 05:47:35;;;;;;;7.60;4.80;;;22.30;72.50;;;;;;214792;1281;22476;-55
2022/10/18 05:52:39;;;;;;;7.70;4.60;;;22.40;72.90;;;;;;215067;1291;22461;-58
2022/10/18 05:57:42;;;;;;;8.00;4.60;;;22.40;73.00;;;;;;214710;1281;24257;-57
2022/10/18 06:02:47;;;;;;;6.50;4.70;;;22.40;73.00;;;;;;214898;1291;23498;-57
2022/10/18 06:07:50;;;;;;;9.40;5.20;;;22.40;73.30;;;;;;214767;1295;382243;-58
2022/10/18 06:12:55;;;;;;;8.00;4.50;;;22.40;73.80;;;;;;215022;1300;24195;-57
2022/10/18 06:17:59;;;;;;;8.60;5.10;;;22.40;73.80;;;;;;215011;1281;24317;-56
2022/10/18 06:23:03;;;;;;;15.50;5.10;;;22.40;74.00;;;;;;214757;1291;22819;-56
2022/10/18 06:28:07;;;;;;;10.20;5.20;;;22.40;73.80;;;;;;214937;1282;22557;-54
2022/10/18 06:33:30;;;;;;;11.60;5.30;;;22.40;74.00;;;;;;214793;1295;24218;-54
2022/10/18 06:38:37;;;;;;;15.10;5.80;;;22.40;73.50;;;;;;214758;1300;24308;-53
2022/10/18 06:43:45;;;;;;;14.30;6.00;;;22.40;73.60;;;;;;214681;1284;24237;-54
2022/10/18 06:48:53;;;;;;;17.50;6.00;;;22.40;73.40;;;;;;214926;1286;22533;-53
2022/10/18 06:54:00;;;;;;;19.60;7.20;;;22.50;73.00;;;;;;214883;1287;25477;-54
2022/10/18 06:59:24;;;;;;;11.30;5.30;;;22.40;72.90;;;;;;215074;1294;22583;-54
2022/10/18 07:04:35;;;;;;;17.20;5.00;;;22.50;72.80;;;;;;214855;1285;24161;-53
2022/10/18 07:09:39;;;;;;;13.80;5.70;;;22.50;72.60;;;;;;215405;1295;24332;-54
2022/10/18 07:14:49;;;;;;;17.00;5.90;;;22.50;72.80;;;;;;215068;1281;22672;-52
2022/10/18 07:19:55;;;;;;;8.40;5.20;;;22.50;72.60;;;;;;215689;1283;23760;-50
2022/10/18 07:25:01;;;;;;;12.50;5.90;;;22.60;72.60;;;;;;216228;1287;22663;-53
2022/10/18 07:30:08;;;;;;;9.60;5.20;;;22.50;72.60;;;;;;216298;1286;23166;-54
2022/10/18 07:35:12;;;;;;;11.80;5.40;;;22.50;72.40;;;;;;215077;1297;23858;-54
2022/10/18 07:40:16;;;;;;;11.80;6.30;;;22.60;72.10;;;;;;214608;1284;22530;-53
2022/10/18 07:45:21;;;;;;;14.00;6.20;;;22.50;72.40;;;;;;215328;1287;25564;-55
2022/10/18 07:50:24;;;;;;;18.90;7.00;;;22.60;72.10;;;;;;214121;1282;22519;-54
2022/10/18 07:55:28;;;;;;;24.80;7.50;;;22.60;71.90;;;;;;214198;1285;22499;-53
2022/10/18 08:00:35;;;;;;;12.40;6.00;;;22.60;72.30;;;;;;214453;1295;23847;-52
2022/10/18 08:05:39;;;;;;;10.00;5.50;;;22.60;71.90;;;;;;214554;1284;24485;-54
2022/10/18 08:10:43;;;;;;;11.10;5.10;;;22.60;71.70;;;;;;214341;1287;23878;-53
2022/10/18 08:15:47;;;;;;;11.80;5.10;;;22.60;71.70;;;;;;214520;1285;24012;-56
2022/10/18 08:20:50;;;;;;;8.20;5.00;;;22.60;71.80;;;;;;214705;1279;22491;-49
2022/10/18 08:25:54;;;;;;;7.90;4.80;;;22.60;71.70;;;;;;214609;1288;25309;-55
2022/10/18 08:31:08;;;;;;;11.60;5.80;;;22.70;71.60;;;;;;214635;1293;22552;-53
2022/10/18 08:36:15;;;;;;;12.40;5.20;;;22.70;71.50;;;;;;214740;1300;23845;-55
2022/10/18 08:41:41;;;;;;;11.00;4.80;;;22.80;71.40;;;;;;214795;1285;23147;-56
2022/10/18 08:46:48;;;;;;;13.90;5.70;;;22.90;71.60;;;;;;214683;1297;22496;-57
2022/10/18 08:51:52;;;;;;;8.90;5.50;;;22.90;72.00;;;;;;214714;1290;22476;-56
2022/10/18 08:57:00;;;;;;;13.00;5.80;;;22.90;71.50;;;;;;214745;1281;23659;-57
2022/10/18 09:02:37;;;;;;;12.20;5.40;;;23.00;71.20;;;;;;214708;1300;25454;-57
2022/10/18 09:07:52;;;;;;;18.70;5.70;;;23.10;71.20;;;;;;214721;1286;22474;-58
2022/10/18 09:13:40;;;;;;;7.70;5.20;;;23.10;70.70;;;;;;214712;1288;24296;-58
2022/10/18 09:18:57;;;;;;;9.90;5.90;;;23.30;70.60;;;;;;214348;1286;24013;-57
2022/10/18 09:24:11;;;;;;;10.70;5.40;;;23.30;70.50;;;;;;214949;1281;22509;-55
2022/10/18 09:29:27;;;;;;;10.20;5.50;;;23.40;70.40;;;;;;214695;1282;25491;-54
2022/10/18 09:34:41;;;;;;;16.40;6.10;;;23.30;70.50;;;;;;214801;1293;23888;-53
2022/10/18 09:39:47;;;;;;;8.60;5.40;;;23.30;70.60;;;;;;214732;1291;22469;-54
2022/10/18 09:44:55;;;;;;;12.30;5.40;;;23.30;70.50;;;;;;214816;1283;25115;-51
2022/10/18 09:50:23;;;;;;;9.50;4.80;;;23.30;70.40;;;;;;214815;1300;23832;-55
2022/10/18 09:55:33;;;;;;;10.30;4.60;;;23.40;70.30;;;;;;214794;1288;24314;-54
2022/10/18 10:00:45;;;;;;;11.20;5.60;;;23.40;70.10;;;;;;215002;1300;22631;-52
2022/10/18 10:06:02;;;;;;;7.80;4.90;;;23.50;70.30;;;;;;214963;1287;22830;-53
2022/10/18 10:11:26;;;;;;;6.40;4.60;;;23.60;69.70;;;;;;215039;1299;25407;-55
2022/10/18 10:16:30;;;;;;;7.20;4.80;;;23.60;69.50;;;;;;215085;1288;24234;-53
2022/10/18 10:21:38;;;;;;;7.90;4.70;;;23.60;69.40;;;;;;215100;1287;22481;-54
2022/10/18 10:26:42;;;;;;;8.90;4.60;;;23.60;69.70;;;;;;215159;1292;22475;-54
2022/10/18 10:32:01;;;;;;;9.70;5.00;;;23.60;69.40;;;;;;215001;1287;23255;-52
2022/10/18 10:37:23;;;;;;;7.70;4.50;;;23.50;69.30;;;;;;215063;1289;22474;-52
2022/10/18 10:42:27;;;;;;;8.20;4.70;;;23.60;69.20;;;;;;214918;1288;22475;-52
2022/10/18 10:47:32;;;;;;;9.10;5.20;;;23.60;69.60;;;;;;215086;1287;23761;-55
2022/10/18 10:52:38;;;;;;;7.30;5.20;;;23.60;69.00;;;;;;215022;1288;25474;-54
2022/10/18 10:57:48;;;;;;;7.10;5.40;;;23.60;68.90;;;;;;214845;1289;24324;-54
2022/10/18 11:03:17;;;;;;;9.30;5.30;;;23.60;68.90;;;;;;215153;1282;22484;-53
2022/10/18 11:08:40;;;;;;;8.70;5.10;;;23.60;69.30;;;;;;215122;1300;22783;-51
2022/10/18 11:13:57;;;;;;;8.80;5.40;;;23.60;69.00;;;;;;215179;1287;24233;-56
2022/10/18 11:19:36;;;;;;;9.00;5.10;;;23.60;69.00;;;;;;215066;1298;22486;-56
2022/10/18 11:24:39;;;;;;;9.10;5.10;;;23.60;69.30;;;;;;215145;1288;22473;-56
2022/10/18 11:29:54;;;;;;;8.40;5.10;;;23.60;68.90;;;;;;215048;1301;24248;-54
2022/10/18 11:35:04;;;;;;;9.10;5.20;;;23.60;68.80;;;;;;215130;1286;24234;-56
2022/10/18 11:40:07;;;;;;;11.20;6.00;;;23.50;68.80;;;;;;215088;1295;25363;-54
2022/10/18 11:45:16;;;;;;;7.10;4.80;;;23.60;68.80;;;;;;215050;1292;24336;-53
2022/10/18 11:50:49;;;;;;;10.00;5.80;;;23.50;68.80;;;;;;215008;1292;23840;-54
2022/10/18 11:56:11;;;;;;;6.10;5.20;;;23.60;68.80;;;;;;214951;1300;25293;-54
2022/10/18 12:01:36;;;;;;;6.50;5.00;;;23.60;68.70;;;;;;214843;1284;24230;-54
2022/10/18 12:06:45;;;;;;;7.00;4.90;;;23.60;68.50;;;;;;214991;1288;22463;-52
2022/10/18 12:12:01;;;;;;;10.00;5.00;;;23.70;68.70;;;;;;215033;1284;22546;-52
2022/10/18 12:17:34;;;;;;;9.80;5.40;;;23.70;68.40;;;;;;214829;1300;22476;-54
2022/10/18 12:22:57;;;;;;;8.70;5.10;;;23.60;68.40;;;;;;215003;1288;24228;-52
2022/10/18 12:28:26;;;;;;;8.60;5.60;;;23.60;68.30;;;;;;215005;1284;22500;-53
2022/10/18 12:33:36;;;;;;;8.30;5.40;;;23.60;68.60;;;;;;214980;1287;24256;-55
2022/10/18 12:38:43;;;;;;;7.40;5.20;;;23.60;68.70;;;;;;215034;1300;25315;-55
2022/10/18 12:43:53;;;;;;;7.40;5.40;;;23.60;69.00;;;;;;215035;1292;22597;-58
2022/10/18 12:49:03;;;;;;;10.80;6.10;;;23.60;69.10;;;;;;214940;1286;22469;-53
2022/10/18 12:54:10;;;;;;;9.00;6.00;;;23.60;69.00;;;;;;214826;1294;24375;-60
2022/10/18 12:59:22;;;;;;;7.20;5.60;;;23.60;69.10;;;;;;214952;1293;22461;-49
2022/10/18 13:04:31;;;;;;;8.20;5.10;;;23.60;69.10;;;;;;214838;1281;22481;-49
2022/10/18 13:10:02;;;;;;;6.90;5.00;;;23.60;69.10;;;;;;214775;1298;22478;-53
2022/10/18 13:15:45;;;;;;;7.50;5.10;;;23.60;69.00;;;;;;214829;1292;25275;-49
2022/10/18 13:21:01;;;;;;;7.70;4.80;;;23.60;69.10;;;;;;214688;1293;22524;-52
2022/10/18 13:26:41;;;;;;;10.80;5.60;;;23.60;69.10;;;;;;214758;1294;24181;-55
2022/10/18 13:32:04;;;;;;;8.90;5.60;;;23.70;69.00;;;;;;214704;1298;22466;-53
2022/10/18 13:37:10;;;;;;;6.00;4.80;;;23.70;68.80;;;;;;214953;1285;24336;-46
2022/10/18 13:42:14;;;;;;;7.40;5.80;;;23.70;68.90;;;;;;214853;1282;22462;-52
2022/10/18 13:47:47;;;;;;;10.00;5.90;;;23.70;69.00;;;;;;214904;1275;23068;-55
2022/10/18 13:53:03;;;;;;;8.90;5.90;;;23.70;69.00;;;;;;214735;1300;24259;-52
2022/10/18 13:58:46;;;;;;;8.80;5.60;;;23.70;69.00;;;;;;214253;1297;22474;-52
2022/10/18 14:04:26;;;;;;;8.00;5.50;;;23.60;69.50;;;;;;214753;1286;22483;-53
2022/10/18 14:09:54;;;;;;;8.50;5.50;;;23.60;69.40;;;;;;214863;1285;22431;-52
2022/10/18 14:15:36;;;;;;;8.70;5.60;;;23.60;69.60;;;;;;214661;1284;24234;-53
2022/10/18 14:20:51;;;;;;;9.00;5.90;;;23.60;69.30;;;;;;214266;1297;22481;-50
2022/10/18 14:26:27;;;;;;;9.50;5.40;;;23.60;69.20;;;;;;214191;1303;24997;-52
2022/10/18 14:31:53;;;;;;;9.70;6.00;;;23.60;69.20;;;;;;214094;1287;25406;-50
2022/10/18 14:37:05;;;;;;;10.70;5.90;;;23.50;69.30;;;;;;214226;1288;24695;-51
2022/10/18 14:42:19;;;;;;;13.50;6.20;;;23.50;69.20;;;;;;214166;1295;22608;-51
2022/10/18 14:47:34;;;;;;;18.90;7.20;;;23.50;69.20;;;;;;214364;1296;24561;-50
2022/10/18 14:53:02;;;;;;;14.50;6.20;;;23.50;69.30;;;;;;214685;1284;25745;-51
2022/10/18 14:58:14;;;;;;;10.30;6.70;;;23.50;69.50;;;;;;214145;1289;22595;-49
2022/10/18 15:03:33;;;;;;;;;;;;;;;;;;;;;
2022/10/18 15:08:52;;;;;;;16.20;6.90;;;23.50;70.50;;;;;;214177;1281;22962;-48
2022/10/18 15:14:01;;;;;;;11.30;5.40;;;23.60;72.90;;;;;;214123;1287;24167;-52
2022/10/18 15:19:17;;;;;;;10.40;6.20;;;23.60;73.20;;;;;;214588;1284;24296;-53
2022/10/18 15:24:41;;;;;;;12.50;6.10;;;23.70;74.60;;;;;;214809;1296;22486;-51
2022/10/18 15:29:45;;;;;;;10.00;5.00;;;23.70;74.40;;;;;;214647;1290;24774;-53
2022/10/18 15:34:49;;;;;;;10.50;5.10;;;23.70;74.10;;;;;;214939;1297;24386;-53
2022/10/18 15:40:17;;;;;;;10.10;5.30;;;23.60;74.00;;;;;;214867;1277;25520;-56
2022/10/18 15:45:23;;;;;;;11.90;5.90;;;23.60;73.60;;;;;;214900;1282;22510;-56
2022/10/18 15:50:48;;;;;;;10.60;5.60;;;23.60;73.40;;;;;;214862;1282;22471;-50
2022/10/18 15:56:24;;;;;;;8.30;5.00;;;23.70;73.50;;;;;;219497;1293;23889;-51
2022/10/18 16:01:37;;;;;;;10.50;4.80;;;23.60;72.70;;;;;;222836;1293;22226;-55
2022/10/18 16:06:43;;;;;;;11.00;5.20;;;23.70;72.60;;;;;;222826;1293;22903;-54
2022/10/18 16:11:54;;;;;;;12.10;4.60;;;23.70;72.40;;;;;;222772;1286;22148;-55
2022/10/18 16:17:06;;;;;;;8.00;4.60;;;23.70;72.20;;;;;;222818;1293;22193;-55
2022/10/18 16:22:12;;;;;;;6.90;4.60;;;23.70;71.80;;;;;;222742;1285;22281;-55
2022/10/18 16:27:22;;;;;;;6.20;4.50;;;23.70;71.50;;;;;;218470;1293;22529;-58
2022/10/18 16:32:27;;;;;;;10.90;4.50;;;23.70;71.20;;;;;;214988;1294;24234;-57
2022/10/18 16:37:32;;;;;;;5.10;3.70;;;23.70;71.50;;;;;;214696;1286;24259;-56
2022/10/18 16:42:43;;;;;;;9.70;3.80;;;23.70;71.40;;;;;;214769;1286;22464;-56
2022/10/18 16:47:54;;;;;;;7.10;3.70;;;23.60;71.60;;;;;;214902;1281;25011;-60
2022/10/18 16:52:58;;;;;;;7.40;4.30;;;23.70;71.10;;;;;;214838;1281;22487;-57
2022/10/18 16:58:16;;;;;;;9.20;4.70;;;23.70;71.30;;;;;;215012;1299;23882;-57
2022/10/18 17:03:23;;;;;;;8.40;3.80;;;23.60;71.20;;;;;;214999;1281;22487;-58
2022/10/18 17:08:29;;;;;;;9.30;4.20;;;23.60;70.90;;;;;;214993;1294;25296;-58
2022/10/18 17:13:33;;;;;;;8.80;3.50;;;23.60;70.60;;;;;;214933;1292;24215;-56
2022/10/18 17:18:41;;;;;;;6.30;4.00;;;23.60;70.50;;;;;;214994;1283;22472;-57
2022/10/18 17:23:47;;;;;;;10.90;3.80;;;23.70;70.80;;;;;;214848;1300;23855;-58
2022/10/18 17:28:56;;;;;;;8.40;3.60;;;23.70;70.50;;;;;;214671;1282;24322;-59
2022/10/18 17:34:07;;;;;;;8.90;4.10;;;23.70;70.30;;;;;;215011;1295;22722;-57
2022/10/18 17:39:11;;;;;;;8.70;3.80;;;23.60;70.10;;;;;;214702;1297;24325;-56
2022/10/18 17:44:15;;;;;;;8.30;4.60;;;23.60;70.20;;;;;;214890;1299;22466;-58
2022/10/18 17:49:26;;;;;;;9.60;4.10;;;23.70;70.20;;;;;;215013;1300;22495;-56
2022/10/18 17:54:31;;;;;;;11.00;4.00;;;23.60;70.10;;;;;;215055;1281;22513;-59
2022/10/18 17:59:36;;;;;;;11.10;4.10;;;23.60;69.70;;;;;;214955;1283;22718;-59
2022/10/18 18:04:39;;;;;;;6.70;3.30;;;23.60;69.80;;;;;;214996;1284;24346;-57
2022/10/18 18:09:46;;;;;;;7.90;3.70;;;23.70;70.30;;;;;;214941;1285;188821;-58
2022/10/18 18:14:51;;;;;;;5.90;3.90;;;23.60;70.40;;;;;;214991;1288;22478;-57
2022/10/18 18:19:55;;;;;;;7.20;3.40;;;23.60;69.80;;;;;;215053;1283;23167;-58
2022/10/18 18:24:59;;;;;;;7.80;3.60;;;23.50;69.60;;;;;;215098;1297;22723;-54
2022/10/18 18:30:06;;;;;;;12.40;3.90;;;23.50;69.70;;;;;;214901;1290;22609;-53
2022/10/18 18:35:13;;;;;;;14.50;3.80;;;23.50;69.70;;;;;;214906;1282;24265;-52
2022/10/18 18:40:17;;;;;;;15.00;4.60;;;23.50;70.20;;;;;;215161;1288;22471;-54
2022/10/18 18:45:23;;;;;;;8.90;3.50;;;23.50;70.70;;;;;;214659;1300;25255;-53
2022/10/18 18:50:35;;;;;;;10.20;3.30;;;23.50;70.70;;;;;;214711;1297;24270;-57
2022/10/18 18:55:40;;;;;;;17.50;4.30;;;23.50;70.90;;;;;;214790;1291;22475;-59
2022/10/18 19:00:45;;;;;;;13.50;3.90;;;23.50;70.60;;;;;;214900;1295;24318;-59
2022/10/18 19:05:50;;;;;;;13.90;3.70;;;23.40;70.60;;;;;;214747;1292;22544;-59
2022/10/18 19:10:57;;;;;;;13.80;4.30;;;23.50;71.50;;;;;;214841;1275;24453;-58
2022/10/18 19:16:22;;;;;;;13.30;4.40;;;23.50;71.60;;;;;;214864;1294;25127;-59
2022/10/18 19:21:35;;;;;;;20.60;4.20;;;23.50;71.60;;;;;;214739;1278;25597;-58
2022/10/18 19:26:45;;;;;;;16.40;3.40;;;23.50;72.00;;;;;;214718;1286;24733;-60
2022/10/18 19:32:07;;;;;;;12.20;3.40;;;23.50;72.00;;;;;;214879;1276;22538;-62
2022/10/18 19:37:12;;;;;;;15.70;5.10;;;23.40;72.30;;;;;;214851;1285;22513;-60
2022/10/18 19:42:19;;;;;;;10.70;3.60;;;23.40;71.90;;;;;;214833;1281;24266;-64
2022/10/18 19:47:28;;;;;;;15.10;4.40;;;23.50;71.90;;;;;;214831;1297;25444;-67
2022/10/18 19:52:40;;;;;;;14.20;4.30;;;23.40;71.80;;;;;;214608;1298;24030;-65
2022/10/18 19:57:50;;;;;;;17.30;4.70;;;23.40;71.60;;;;;;215190;1294;25294;-57
2022/10/18 20:02:53;;;;;;;10.30;4.20;;;23.40;71.80;;;;;;214755;1286;25509;-57
2022/10/18 20:07:58;;;;;;;12.40;4.10;;;23.40;71.70;;;;;;214799;1300;24034;-60
2022/10/18 20:13:02;;;;;;;11.80;4.40;;;23.30;71.80;;;;;;215097;1285;22461;-60
2022/10/18 20:18:07;;;;;;;9.30;4.00;;;23.40;71.60;;;;;;215009;1285;23882;-60
2022/10/18 20:23:10;;;;;;;5.70;3.00;;;23.40;71.30;;;;;;214946;1295;24214;-60
2022/10/18 20:28:18;;;;;;;9.40;3.40;;;23.30;71.10;;;;;;214981;1295;24231;-62
2022/10/18 20:33:22;;;;;;;12.90;3.20;;;23.40;71.10;;;;;;214933;1282;22474;-59
2022/10/18 20:38:33;;;;;;;10.10;2.80;;;23.30;71.50;;;;;;215058;1285;22486;-59
2022/10/18 20:43:40;;;;;;;6.70;2.90;;;23.30;71.20;;;;;;215087;1282;24420;-60
2022/10/18 20:48:50;;;;;;;7.30;3.30;;;23.30;71.10;;;;;;214981;1294;24426;-59
2022/10/18 20:53:56;;;;;;;5.60;2.70;;;23.30;71.50;;;;;;214488;1291;22478;-60
2022/10/18 20:59:01;;;;;;;4.60;3.00;;;23.30;71.40;;;;;;214856;1275;22840;-59
2022/10/18 21:04:08;;;;;;;8.80;3.10;;;23.30;71.60;;;;;;214784;1293;23887;-60
2022/10/18 21:09:16;;;;;;;9.80;3.60;;;23.30;72.90;;;;;;215080;1281;22470;-58
2022/10/18 21:14:23;;;;;;;12.20;3.90;;;23.30;74.00;;;;;;215200;1288;22411;-59
2022/10/18 21:19:26;;;;;;;13.70;3.90;;;23.20;75.40;;;;;;214857;1278;23875;-58
2022/10/18 21:24:30;;;;;;;8.20;3.40;;;23.30;76.70;;;;;;214595;1284;22510;-59
2022/10/18 21:29:34;;;;;;;8.00;3.30;;;23.40;76.10;;;;;;214909;1281;23164;-58
2022/10/18 21:34:38;;;;;;;5.70;2.90;;;23.40;75.50;;;;;;214840;1275;22455;-60
2022/10/18 21:39:43;;;;;;;7.30;3.00;;;23.40;75.60;;;;;;214743;1293;22469;-59
2022/10/18 21:44:46;;;;;;;7.10;2.90;;;23.40;75.50;;;;;;214695;1299;23895;-57
2022/10/18 21:49:50;;;;;;;8.20;3.30;;;23.30;75.60;;;;;;214768;1291;22473;-57
2022/10/18 21:54:57;;;;;;;7.60;3.60;;;23.40;75.50;;;;;;214857;1284;22476;-58
2022/10/18 22:00:08;;;;;;;8.30;3.00;;;23.30;75.90;;;;;;214799;1294;22474;-59
2022/10/18 22:05:12;;;;;;;12.60;3.70;;;23.30;75.60;;;;;;214818;1294;22458;-57
2022/10/18 22:10:16;;;;;;;7.20;2.90;;;23.30;75.50;;;;;;214937;1282;22473;-59
2022/10/18 22:15:20;;;;;;;7.90;3.90;;;23.30;75.90;;;;;;214900;1300;25369;-59
2022/10/18 22:20:24;;;;;;;7.50;3.10;;;23.30;75.40;;;;;;214432;1281;24310;-58
2022/10/18 22:25:30;;;;;;;7.20;3.30;;;23.30;75.30;;;;;;214199;1303;22468;-59
2022/10/18 22:30:37;;;;;;;4.70;2.70;;;23.30;75.50;;;;;;214127;1284;22460;-59
2022/10/18 22:35:48;;;;;;;5.40;2.70;;;23.30;75.60;;;;;;214445;1284;22518;-58
2022/10/18 22:40:52;;;;;;;5.70;2.70;;;23.30;74.70;;;;;;214458;1284;24333;-57
2022/10/18 22:46:03;;;;;;;14.10;2.70;;;23.30;74.90;;;;;;214384;1284;22475;-59
2022/10/18 22:51:07;;;;;;;4.90;2.80;;;23.40;74.90;;;;;;214428;1284;22513;-59
2022/10/18 22:56:16;;;;;;;6.20;3.10;;;23.30;75.00;;;;;;214488;1296;25408;-59
2022/10/18 23:01:22;;;;;;;;;;;23.30;74.50;;;;;;214447;1289;25255;-59
2022/10/18 23:06:33;;;;;;;6.50;2.50;;;23.30;74.40;;;;;;214603;1292;24251;-60
2022/10/18 23:11:38;;;;;;;;;;;23.40;74.30;;;;;;214589;1284;25280;-58
2022/10/18 23:16:47;;;;;;;4.00;2.50;;;23.40;74.20;;;;;;214580;1297;22473;-59
2022/10/18 23:21:53;;;;;;;6.10;2.80;;;23.30;74.10;;;;;;215134;1295;24036;-58
2022/10/18 23:26:57;;;;;;;9.60;3.80;;;23.30;74.00;;;;;;214984;1288;25706;-58
2022/10/18 23:32:01;;;;;;;9.30;2.90;;;23.30;74.10;;;;;;214874;1300;25291;-59
2022/10/18 23:37:05;;;;;;;5.90;2.50;;;23.30;73.90;;;;;;215088;1291;24246;-59
2022/10/18 23:42:09;;;;;;;7.00;2.90;;;23.30;73.80;;;;;;215085;1288;22487;-57
2022/10/18 23:47:14;;;;;;;14.30;3.80;;;23.30;73.80;;;;;;214720;1289;25588;-58
2022/10/18 23:52:19;;;;;;;7.80;3.10;;;23.20;73.80;;;;;;223039;1287;22142;-58
2022/10/18 23:57:23;;;;;;;7.40;2.70;;;23.20;73.80;;;;;;215781;1293;24672;-59
